It's Tuesday,
July 23rd, 2024
User not logged in
[Run Race Header Image][Run Race logo]
  
Race webcasting is attempted by race directors and their support staff. Please remember that conditions under which they're working may make it difficult to post timely webcast updates... your interest and patience is appreciated!
Race Information
Race Name:Des Plaines River Trail Races 2016
Location:Half Day Forest Preserve - Vernon Hills
State:Illinois, United States
 button: button: Webcast Autoplay
Event Information
Name of Event:DPR Trail 50 Mile Ultramarathon
Distance:50 Miles
Started Date/Time:Saturday October 15th, 2016, 6:59:55.46 am
button: Assign Numbers 

Event Information
Name of Event:DPR Trail Marathon
Distance:26.2 Miles
Started Date/Time:Saturday October 15th, 2016, 7:59:55.51 am
button: Assign Numbers  
Checkpoint:#3 Route 60 : Outbound
Distance:7.9 Miles
Gun Start Time:Saturday October 15th, 2016 7:59:55.51 am
Calculate Chip Start Time:Yes
Y or N... Calculate splits based upon participant chip start time?
Allow Early Chip Start Time:< not set >
Y or N... Allow participants a chip start time prior to gun start?
Pos Race
Number
NameAgeSexTimePace 
1201Matt Aro29M54:57.76:57.4Sat Oct 15th, 2016 8:54:54 am
2114Danny Ponder49M55:14.06:59.5Sat Oct 15th, 2016 8:55:11 am
3150Summer Forester25F55:44.37:03.3Sat Oct 15th, 2016 8:55:41 am
4Leonard Ealey40M1:00:49.47:41.9Sat Oct 15th, 2016 9:03:53 am
51321Team SBRX1:03:08.07:59.5Sat Oct 15th, 2016 9:03:08 am
61311The Flyin' FlunkiesX1:03:09.17:59.6Sat Oct 15th, 2016 9:03:07 am
71:05:09.98:14.9Sat Oct 15th, 2016 9:05:07 am
8607Janelle Zimmerman28F1:05:30.18:17.5Sat Oct 15th, 2016 9:05:33 am
9Gabe Rainwater20M1:05:31.78:17.7Sat Oct 15th, 2016 9:05:31 am
10755gary bennington48M1:05:36.68:18.3Sat Oct 15th, 2016 9:05:32 am
11162Lawrence Seward63M1:06:10.78:22.6Sat Oct 15th, 2016 9:06:09 am
12209Paul Hanaki-Martin45M1:06:36.88:25.9Sat Oct 15th, 2016 9:09:45 am
13830Ray Zirblis53M1:06:41.48:26.5Sat Oct 15th, 2016 9:06:41 am
14Drew Deppen25M1:06:46.68:27.2Sat Oct 15th, 2016 9:06:53 am
15Dennis Nink46M1:06:46.88:27.2Sat Oct 15th, 2016 9:06:46 am
16Constance Karras42F1:06:48.58:27.4Sat Oct 15th, 2016 9:09:48 am
17Rob Hermann39M1:06:48.68:27.4Sat Oct 15th, 2016 9:09:46 am
18645Chris Alexander40M1:07:22.48:31.7Sat Oct 15th, 2016 9:07:25 am
1911Bob Rehn65M1:07:33.28:33.1Sat Oct 15th, 2016 9:07:35 am
20430Team BuffaloM1:08:18.08:38.7Sat Oct 15th, 2016 9:08:16 am
21648Burch LaPrade36M1:08:19.68:38.9Sat Oct 15th, 2016 9:11:23 am
22262Raymond churgovich42M1:08:38.98:41.4Sat Oct 15th, 2016 9:08:42 am
23191Scott Hudson40M1:08:40.38:41.6Sat Oct 15th, 2016 9:08:47 am
24Mary Anne Dougherty53F1:08:45.68:42.2Sat Oct 15th, 2016 9:08:41 am
25146Rebecca Kasten39F1:10:02.38:51.9Sat Oct 15th, 2016 9:13:23 am
26521Marla Luckey27F1:10:12.98:53.3Sat Oct 15th, 2016 9:13:24 am
271231Internal Revenue RunnersX1:11:17.39:01.4Sat Oct 15th, 2016 9:14:15 am
28272ANDREA PUTZ25F1:12:06.49:07.6Sat Oct 15th, 2016 9:12:18 am
2984ben choi56M1:12:58.09:14.2Sat Oct 15th, 2016 9:16:08 am
30Michael Morgan34M1:13:19.09:16.8Sat Oct 15th, 2016 9:16:19 am
31527Frank Powers48M1:13:24.69:17.5Sat Oct 15th, 2016 9:16:26 am
32784Jeff List48M1:13:33.59:18.7Sat Oct 15th, 2016 9:16:42 am
3358sean Doyle15M1:13:40.39:19.5Sat Oct 15th, 2016 9:17:04 am
34609Paul DeWitt39M1:14:07.59:23.0Sat Oct 15th, 2016 9:17:16 am
35789Mariah Murphy24F1:14:24.69:25.1Sat Oct 15th, 2016 9:20:26 am
3669Anne Ver Hoef47F1:14:25.79:25.3Sat Oct 15th, 2016 9:20:26 am
37100HUNG K NG43M1:16:11.39:38.6Sat Oct 15th, 2016 9:16:06 am
3824kurt decker36M1:16:46.89:43.1Sat Oct 15th, 2016 9:19:48 am
39John Collet40M1:16:52.99:43.9Sat Oct 15th, 2016 9:19:55 am
40767steve genereaux46M1:17:03.69:45.3Sat Oct 15th, 2016 9:20:09 am
41637Steve Riportella42M1:17:09.99:46.1Sat Oct 15th, 2016 9:23:16 am
42Joel Maurer53M1:17:36.09:49.4Sat Oct 15th, 2016 9:20:35 am
43108David A. Hughes63M1:18:37.09:57.1Sat Oct 15th, 2016 9:24:39 am
44195Patrik Berger33M1:19:19.710:02.5Sat Oct 15th, 2016 9:25:17 am
45118Chris Migotsky43M1:19:56.410:07.1Sat Oct 15th, 2016 9:25:56 am
46Steven Donley37M1:20:29.210:11.3Sat Oct 15th, 2016 9:20:24 am
47207Josh Dillingham23M1:21:39.010:20.1Sat Oct 15th, 2016 9:27:59 am
48172Tom Bunk66M1:21:43.510:20.7Sat Oct 15th, 2016 9:27:58 am
49Betty Lacharite72F1:21:48.210:21.3Sat Oct 15th, 2016 9:27:58 am
50193Patrick Mills56M1:22:54.410:29.7Sat Oct 15th, 2016 9:29:08 am
51694Bill Gengler54M1:24:21.610:40.7Sat Oct 15th, 2016 9:30:29 am
52196Tom Kissner47M1:24:44.410:43.6Sat Oct 15th, 2016 9:30:45 am
53101David Wakefield33M1:25:23.710:48.6Sat Oct 15th, 2016 9:31:31 am
5456Matt Ostrander46M1:25:56.110:52.7Sat Oct 15th, 2016 9:25:51 am
5543Lee Krautkramer42M1:26:34.810:57.6Sat Oct 15th, 2016 9:32:43 am
56203DICK CANTERBURY61M1:27:04.011:01.3Sat Oct 15th, 2016 9:33:03 am
57816Nathan Sanel39M1:27:17.211:02.9Sat Oct 15th, 2016 9:36:23 am
58Gerald Barney75M1:27:49.411:07.0Sat Oct 15th, 2016 9:33:49 am
59753Alireza Ashtari30M1:27:50.111:07.1Sat Oct 15th, 2016 9:34:01 am
60672Paul Krzesinski28M1:28:20.711:11.0Sat Oct 15th, 2016 9:34:17 am
6159tim adair35M1:28:31.911:12.4Sat Oct 15th, 2016 9:37:29 am
62153dorn peddy50M1:28:45.211:14.1Sat Oct 15th, 2016 9:37:52 am
63gary Henry51M1:30:57.911:30.9Sat Oct 15th, 2016 9:39:55 am
6455dominic ruffalo57M1:30:59.311:31.1Sat Oct 15th, 2016 9:37:05 am
651141Weakened WarriorsX1:31:00.411:31.2Sat Oct 15th, 2016 9:37:05 am
66390Friday NightersM1:31:53.611:37.9Sat Oct 15th, 2016 9:38:04 am
67148Michelle Gallagher42F1:31:57.311:38.4Sat Oct 15th, 2016 9:41:05 am
681151Team Java JogX1:32:13.111:40.4Sat Oct 15th, 2016 9:32:08 am
6934Diane Odekirk67F1:32:45.911:44.5Sat Oct 15th, 2016 9:38:57 am
70646Al Kershner54M1:33:19.511:48.8Sat Oct 15th, 2016 9:42:17 am
71Mark W. Damitio49M1:33:30.411:50.2Sat Oct 15th, 2016 9:39:38 am
72Angeline Stuma21F1:33:37.011:51.0Sat Oct 15th, 2016 9:39:35 am
73570kevin benes22M1:33:37.211:51.0Sat Oct 15th, 2016 9:39:34 am
74111Tom Krause37M1:34:10.411:55.2Sat Oct 15th, 2016 9:40:11 am
75116Sherry Meador42F1:35:01.812:01.7Sat Oct 15th, 2016 9:41:06 am
76214MICHAEL SILTMAN40M1:35:24.112:04.6Sat Oct 15th, 2016 9:44:27 am
77Spencer Eastman18M1:35:31.012:05.4Sat Oct 15th, 2016 9:41:37 am
78217Tracy Thomas47F1:36:06.312:09.9Sat Oct 15th, 2016 9:36:16 am
79187Deb Johnson48F1:36:29.612:12.9Sat Oct 15th, 2016 9:45:30 am
80110Benjamin Clardy37M1:37:08.912:17.8Sat Oct 15th, 2016 9:43:10 am
81273BEN PUTZ27M1:37:30.412:20.6Sat Oct 15th, 2016 9:46:32 am
82604Kori Hieser28M1:37:31.212:20.7Sat Oct 15th, 2016 9:46:33 am
83Pete Stringer67M1:38:02.012:24.6Sat Oct 15th, 2016 9:47:06 am
84163Brett Sherwood33M1:38:04.412:24.9Sat Oct 15th, 2016 9:44:14 am
85Ray Zirblis53M1:38:05.012:24.9Sat Oct 15th, 2016 9:44:15 am
86Mary Scheerer49F1:39:25.112:35.1Sat Oct 15th, 2016 9:39:20 am
87Jonathan Fintzi21M1:39:32.212:36.0Sat Oct 15th, 2016 9:45:36 am
88641James Thorpe26M1:40:06.612:40.3Sat Oct 15th, 2016 9:49:45 am
89114Dennis Crowne52M1:43:22.013:05.1Sat Oct 15th, 2016 9:43:32 am
90Bradley Riedl24M1:43:46.813:08.2Sat Oct 15th, 2016 9:52:44 am
91162Ronald Evans41M1:44:25.613:13.1Sat Oct 15th, 2016 9:53:30 am
9281Joseph Cichon43M1:44:45.413:15.6Sat Oct 15th, 2016 9:53:45 am
93123todd nott44M1:47:00.813:32.8Sat Oct 15th, 2016 9:56:03 am
94779Nikki Kimball37F1:47:05.513:33.4Sat Oct 15th, 2016 9:56:09 am
95571Spencer Swearingen30M1:51:17.314:05.2Sat Oct 15th, 2016 10:00:17 am
96155Thomas Krause36M1:56:01.614:41.2Sat Oct 15th, 2016 10:02:10 am
9775Lynda Morrill45F1:58:44.815:01.9Sat Oct 15th, 2016 10:01:52 am
98Geoff Riggs37M1:58:55.815:03.3Sat Oct 15th, 2016 10:07:54 am
99James Brown50M1:58:56.815:03.4Sat Oct 15th, 2016 10:07:55 am
10023connie gardner44F2:00:29.815:15.2Sat Oct 15th, 2016 10:09:35 am
101701casey lopez31M2:22:16.518:00.6Sat Oct 15th, 2016 10:31:22 am
10264Sharon Sheppard41F2:34:42.519:35.0Sat Oct 15th, 2016 10:34:38 am
1031271Fleet Feet MadisonX2:49:41.321:28.8Sat Oct 15th, 2016 10:49:42 am
10476Susan Morrill14F2:57:56.622:31.5Sat Oct 15th, 2016 10:58:07 am
105684chase marsden17M3:01:53.423:01.4Sat Oct 15th, 2016 11:04:51 am

Event Information
Name of Event:DPR Trail Half-Marathon
Distance:13.1 Miles
Started Date/Time:Saturday October 15th, 2016, 8:59:56.10 am
button: Assign Numbers 
2004-2024 : All rights reserved
Terms and Conditions